Time;durP1;ratioP1;P1;durP2;ratioP2;P2;SDS_P1;SDS_P2;PMS_P1;PMS_P2;Temp;Humidity;BMP_temperature;BMP_pressure;BME280_temperature;BME280_humidity;BME280_pressure;Samples;Min_cycle;Max_cycle;Signal;HPM_P1;HPM_P2
2021/12/17 00:02:56;;;;;;;68.78;16.90;;;8.30;99.90;;;;;;5089064;28;20789;-92
2021/12/17 00:05:06;;;;;;;76.45;17.48;;;8.30;99.90;;;;;;5092124;28;20050;-93
2021/12/17 00:07:35;;;;;;;63.85;18.20;;;8.30;99.90;;;;;;5090203;27;20056;-92
2021/12/17 00:10:08;;;;;;;72.95;17.92;;;8.30;99.90;;;;;;5082568;27;20046;-92
2021/12/17 00:12:34;;;;;;;76.78;17.30;;;8.30;99.90;;;;;;5084666;27;20426;-92
2021/12/17 00:15:00;;;;;;;64.18;16.92;;;8.30;99.90;;;;;;5084934;28;20278;-92
2021/12/17 00:17:31;;;;;;;54.78;16.30;;;8.30;99.90;;;;;;5079298;28;20828;-92
2021/12/17 00:40:08;;;;;;;66.60;17.17;;;8.30;99.90;;;;;;5082810;28;20420;-92
2021/12/17 00:49:47;;;;;;;55.90;15.88;;;8.20;99.90;;;;;;5099431;28;20050;-93
2021/12/17 00:52:13;;;;;;;54.63;17.10;;;8.20;99.90;;;;;;5085821;28;20087;-93
2021/12/17 00:54:41;;;;;;;65.88;17.48;;;8.20;99.90;;;;;;5086928;28;20043;-92
2021/12/17 00:57:16;;;;;;;64.10;18.20;;;8.20;99.90;;;;;;5099361;28;20039;-93
2021/12/17 00:59:46;;;;;;;54.72;15.43;;;8.20;99.90;;;;;;5107906;28;20118;-92
2021/12/17 01:02:15;;;;;;;54.25;17.08;;;8.20;99.90;;;;;;5092002;28;20050;-92
2021/12/17 01:04:49;;;;;;;61.30;17.13;;;8.20;99.90;;;;;;5085852;28;20038;-93
2021/12/17 01:07:15;;;;;;;46.13;16.20;;;8.20;99.90;;;;;;5078581;28;20114;-92
2021/12/17 01:09:45;;;;;;;49.03;16.27;;;8.20;99.90;;;;;;5102652;28;20399;-93
2021/12/17 01:12:11;;;;;;;61.50;16.63;;;8.20;99.90;;;;;;5098729;28;20043;-93
2021/12/17 01:14:38;;;;;;;47.65;15.95;;;8.20;99.90;;;;;;5081989;28;20040;-93
2021/12/17 01:17:04;;;;;;;46.72;15.45;;;8.40;99.90;;;;;;5089563;28;20057;-92
2021/12/17 01:25:09;;;;;;;41.83;15.52;;;8.20;99.90;;;;;;5093956;28;20048;-91
2021/12/17 01:36:46;;;;;;;33.83;13.10;;;8.20;99.90;;;;;;5136655;22;20107;-87
2021/12/17 01:42:05;;;;;;;37.47;13.60;;;8.20;99.90;;;;;;5056983;28;20821;-87
2021/12/17 01:44:38;;;;;;;36.60;13.50;;;8.20;99.90;;;;;;5032285;28;20131;-88
2021/12/17 01:47:07;;;;;;;42.65;13.88;;;8.20;99.90;;;;;;5028303;28;20105;-88
2021/12/17 02:00:30;;;;;;;41.72;15.13;;;8.20;99.90;;;;;;5041605;28;20049;-88
2021/12/17 02:02:58;;;;;;;40.03;14.98;;;8.20;99.90;;;;;;5034207;28;20065;-88
2021/12/17 02:05:24;;;;;;;43.75;15.32;;;8.20;99.90;;;;;;5020567;28;20053;-88
2021/12/17 02:07:53;;;;;;;49.20;15.13;;;8.20;99.90;;;;;;5028393;28;20037;-88
2021/12/17 02:32:07;;;;;;;38.78;14.48;;;8.20;99.90;;;;;;5044573;28;20067;-88
2021/12/17 02:37:24;;;;;;;39.05;14.77;;;8.20;99.90;;;;;;5047916;28;20059;-88
2021/12/17 02:48:10;;;;;;;36.22;14.73;;;8.20;99.90;;;;;;5010804;28;20322;-88
2021/12/17 02:50:41;;;;;;;34.25;13.93;;;8.20;99.90;;;;;;5032618;28;20066;-88
2021/12/17 02:53:07;;;;;;;40.55;15.45;;;8.20;99.90;;;;;;5029410;28;20084;-88
2021/12/17 02:55:36;;;;;;;32.83;13.90;;;8.20;99.90;;;;;;5032452;28;20059;-88
2021/12/17 02:58:03;;;;;;;31.58;14.20;;;8.20;99.90;;;;;;5023059;28;20055;-88
2021/12/17 03:00:29;;;;;;;33.80;14.13;;;8.20;99.90;;;;;;5037927;28;20102;-88
2021/12/17 03:02:56;;;;;;;33.08;14.18;;;8.20;99.90;;;;;;5039011;28;20032;-88
2021/12/17 03:05:23;;;;;;;38.55;13.32;;;8.20;99.90;;;;;;5033601;28;20032;-88
2021/12/17 03:07:50;;;;;;;31.50;13.00;;;8.20;99.90;;;;;;5021876;28;20391;-87
2021/12/17 03:10:16;;;;;;;33.80;14.18;;;8.20;99.90;;;;;;5030020;28;20055;-88
2021/12/17 03:12:47;;;;;;;29.58;13.20;;;8.20;99.90;;;;;;5025500;28;20044;-88
2021/12/17 03:15:42;;;;;;;37.87;13.40;;;8.50;99.90;;;;;;5035121;28;20051;-88
2021/12/17 03:23:33;;;;;;;44.13;14.43;;;8.20;99.90;;;;;;5033328;28;20049;-87
2021/12/17 03:26:07;;;;;;;35.35;14.48;;;8.20;99.90;;;;;;5014639;28;20124;-88
2021/12/17 03:28:34;;;;;;;40.67;14.45;;;8.20;99.90;;;;;;5023630;28;20049;-88
2021/12/17 03:31:00;;;;;;;40.38;15.25;;;8.20;99.90;;;;;;5023647;28;20037;-87
2021/12/17 03:33:26;;;;;;;38.50;15.05;;;8.20;99.90;;;;;;5038260;28;20053;-88
2021/12/17 03:35:52;;;;;;;33.80;14.00;;;8.20;99.90;;;;;;5016881;28;20944;-88
2021/12/17 03:38:19;;;;;;;34.22;14.82;;;8.20;99.90;;;;;;5032411;28;20432;-88
2021/12/17 03:40:46;;;;;;;35.60;15.30;;;8.10;99.90;;;;;;5026736;28;20041;-88
2021/12/17 03:43:14;;;;;;;37.22;14.02;;;8.20;99.90;;;;;;5040029;28;20095;-88
2021/12/17 03:45:41;;;;;;;37.78;14.65;;;8.20;99.90;;;;;;5034598;28;20044;-88
2021/12/17 03:48:07;;;;;;;34.58;14.48;;;8.20;99.90;;;;;;5043488;28;20048;-87
2021/12/17 03:50:35;;;;;;;34.25;14.88;;;8.20;99.90;;;;;;5044916;28;20517;-87
2021/12/17 03:53:02;;;;;;;33.25;14.68;;;8.20;99.90;;;;;;5029446;28;20045;-88
2021/12/17 03:55:27;;;;;;;29.98;13.45;;;8.20;99.90;;;;;;5029463;28;20056;-87
2021/12/17 03:57:53;;;;;;;64.25;15.45;;;8.30;99.90;;;;;;5021552;28;20387;-87
2021/12/17 04:00:19;;;;;;;31.90;13.35;;;8.20;99.90;;;;;;5027086;28;20637;-88
2021/12/17 04:02:45;;;;;;;32.95;13.50;;;8.70;99.90;;;;;;5031599;28;20128;-87
2021/12/17 04:05:11;;;;;;;76.75;16.50;;;8.10;99.90;;;;;;5027285;28;20449;-88
2021/12/17 04:07:37;;;;;;;34.35;14.13;;;8.10;99.90;;;;;;5015076;28;20049;-87
2021/12/17 04:10:04;;;;;;;30.77;13.73;;;8.20;99.90;;;;;;5031969;28;20119;-88
2021/12/17 04:12:50;;;;;;;33.70;13.98;;;8.10;99.90;;;;;;5050985;28;20455;-88
2021/12/17 04:15:16;;;;;;;35.40;14.10;;;8.10;99.90;;;;;;5050124;28;20083;-88
2021/12/17 04:17:52;;;;;;;29.98;13.15;;;8.10;99.90;;;;;;5036872;28;20080;-88
2021/12/17 04:20:18;;;;;;;28.83;13.05;;;8.10;99.90;;;;;;5023913;28;20433;-88
2021/12/17 04:22:44;;;;;;;32.00;12.38;;;8.30;99.90;;;;;;5047012;28;20040;-88
2021/12/17 04:25:09;;;;;;;33.05;12.82;;;8.10;99.90;;;;;;5015614;28;20041;-87
2021/12/17 04:27:35;;;;;;;28.23;12.30;;;8.10;99.90;;;;;;5021712;28;20051;-87
2021/12/17 04:30:00;;;;;;;26.50;12.30;;;8.50;99.90;;;;;;5041596;28;20071;-88
2021/12/17 04:32:26;;;;;;;30.88;12.30;;;8.40;99.90;;;;;;5035412;28;20558;-88
2021/12/17 04:34:52;;;;;;;31.42;12.93;;;8.10;99.90;;;;;;5029446;28;20056;-88
2021/12/17 04:37:18;;;;;;;26.77;12.35;;;8.10;99.90;;;;;;5044088;28;20403;-88
2021/12/17 04:39:43;;;;;;;31.10;13.02;;;8.10;99.90;;;;;;5025878;28;20051;-88
2021/12/17 04:42:18;;;;;;;29.00;11.45;;;8.10;99.90;;;;;;5016619;28;20028;-88
2021/12/17 04:44:51;;;;;;;29.35;12.38;;;8.10;99.90;;;;;;5044165;28;20544;-88
2021/12/17 04:57:39;;;;;;;26.73;11.60;;;8.10;99.90;;;;;;5037229;28;20063;-89
2021/12/17 05:00:24;;;;;;;24.60;11.27;;;8.10;99.90;;;;;;5016922;28;20505;-88
2021/12/17 05:02:53;;;;;;;25.60;11.20;;;8.10;99.90;;;;;;5015150;28;20048;-88
2021/12/17 05:05:20;;;;;;;27.33;10.52;;;8.00;99.90;;;;;;5028874;28;20127;-88
2021/12/17 05:07:52;;;;;;;24.42;10.75;;;8.00;99.90;;;;;;5028038;28;20039;-88
2021/12/17 05:20:47;;;;;;;25.98;11.18;;;8.00;99.90;;;;;;5056118;28;20094;-89
2021/12/17 05:23:13;;;;;;;23.98;10.05;;;8.00;99.90;;;;;;5022194;28;20081;-89
2021/12/17 05:25:38;;;;;;;21.85;10.60;;;8.00;99.90;;;;;;5020346;28;20500;-88
2021/12/17 05:28:05;;;;;;;24.35;11.48;;;8.00;99.90;;;;;;5022096;28;20116;-88
2021/12/17 05:30:33;;;;;;;28.83;12.50;;;8.00;99.90;;;;;;5036874;28;20148;-88
2021/12/17 05:32:59;;;;;;;34.42;12.55;;;8.00;99.90;;;;;;5028415;28;20047;-89
2021/12/17 05:35:26;;;;;;;25.15;10.77;;;8.00;99.90;;;;;;5043599;28;20053;-88
2021/12/17 05:37:52;;;;;;;23.70;11.27;;;8.00;99.90;;;;;;5034455;28;20449;-88
2021/12/17 05:40:18;;;;;;;32.67;12.23;;;8.00;99.90;;;;;;5038199;28;20044;-89
2021/12/17 05:42:44;;;;;;;25.83;10.98;;;8.00;99.90;;;;;;5028971;28;20078;-89
2021/12/17 05:47:54;;;;;;;44.33;12.98;;;8.00;99.90;;;;;;5045548;28;20040;-88
2021/12/17 05:50:20;;;;;;;32.50;12.55;;;8.00;99.90;;;;;;5037514;28;20044;-89
2021/12/17 05:52:45;;;;;;;29.25;11.60;;;8.00;99.90;;;;;;5038557;28;20537;-89
2021/12/17 05:55:11;;;;;;;54.17;13.02;;;8.00;99.90;;;;;;5039824;28;20571;-89
2021/12/17 05:57:37;;;;;;;27.40;11.63;;;8.00;99.90;;;;;;5049712;28;20039;-88
2021/12/17 06:00:04;;;;;;;40.30;12.55;;;8.00;99.90;;;;;;5038982;28;20052;-88
2021/12/17 06:02:30;;;;;;;28.88;12.05;;;8.00;99.90;;;;;;5045513;28;20051;-88
2021/12/17 06:04:55;;;;;;;28.33;12.50;;;8.00;99.90;;;;;;5033480;28;20036;-88
2021/12/17 06:07:28;;;;;;;28.90;10.85;;;8.00;99.90;;;;;;5032737;28;20045;-88
2021/12/17 06:09:58;;;;;;;28.63;11.98;;;8.00;99.90;;;;;;5030937;28;20052;-89
2021/12/17 06:12:24;;;;;;;47.03;13.20;;;8.30;99.90;;;;;;5039352;28;20047;-88
2021/12/17 06:14:50;;;;;;;29.20;11.93;;;8.30;99.90;;;;;;5033414;28;20079;-87
2021/12/17 06:17:16;;;;;;;38.95;12.40;;;8.00;99.90;;;;;;5047690;28;20064;-88
2021/12/17 06:19:42;;;;;;;24.90;10.95;;;7.90;99.90;;;;;;5029716;28;20521;-88
2021/12/17 06:22:08;;;;;;;27.58;11.93;;;7.90;99.90;;;;;;5046486;28;20032;-88
2021/12/17 06:24:33;;;;;;;29.60;11.38;;;7.90;99.90;;;;;;5043483;28;20056;-88
2021/12/17 06:26:59;;;;;;;28.55;11.02;;;7.90;99.90;;;;;;5030275;28;20057;-88
2021/12/17 06:29:24;;;;;;;28.15;11.13;;;7.90;99.90;;;;;;5029430;28;20703;-88
2021/12/17 06:31:50;;;;;;;28.45;11.35;;;8.00;99.90;;;;;;5037106;28;20048;-88
2021/12/17 06:34:16;;;;;;;32.88;12.02;;;8.70;99.90;;;;;;5026095;28;20114;-89
2021/12/17 06:36:41;;;;;;;26.63;11.43;;;8.00;99.90;;;;;;5027676;28;20048;-87
2021/12/17 06:39:07;;;;;;;27.75;9.95;;;7.90;99.90;;;;;;5043262;28;20045;-89
2021/12/17 06:41:33;;;;;;;28.25;10.40;;;7.90;99.90;;;;;;5028921;28;20044;-88
2021/12/17 06:44:00;;;;;;;22.05;10.48;;;8.30;99.90;;;;;;5019720;28;20040;-89
2021/12/17 06:46:50;;;;;;;27.67;9.93;;;7.90;99.90;;;;;;5030677;28;20110;-90
2021/12/17 06:54:58;;;;;;;22.95;9.23;;;7.90;99.90;;;;;;5047780;28;20055;-90
2021/12/17 07:21:18;;;;;;;25.05;10.02;;;7.90;99.90;;;;;;5041565;28;20907;-89
2021/12/17 07:30:03;;;;;;;28.63;10.68;;;7.90;99.90;;;;;;5044506;28;20040;-89
2021/12/17 07:39:47;;;;;;;29.52;10.50;;;7.90;99.90;;;;;;5042648;28;20517;-89
2021/12/17 07:42:13;;;;;;;33.38;11.35;;;8.00;99.90;;;;;;5026465;28;20072;-89
2021/12/17 07:44:40;;;;;;;38.75;11.20;;;7.90;99.90;;;;;;5028073;28;20074;-89
2021/12/17 07:47:05;;;;;;;27.23;10.65;;;8.00;99.90;;;;;;5029214;28;20083;-89
2021/12/17 07:49:31;;;;;;;24.67;9.65;;;8.00;99.90;;;;;;5029826;28;20695;-89
2021/12/17 07:51:57;;;;;;;27.23;10.45;;;8.00;99.90;;;;;;5045282;28;20146;-89
2021/12/17 07:54:22;;;;;;;25.60;10.13;;;8.00;99.90;;;;;;5048531;28;20424;-88
2021/12/17 07:56:48;;;;;;;29.90;11.35;;;8.00;99.90;;;;;;5030884;28;20040;-89
2021/12/17 07:59:14;;;;;;;24.85;10.77;;;8.00;99.90;;;;;;5025559;28;20037;-89
2021/12/17 08:01:41;;;;;;;30.02;11.43;;;8.00;99.90;;;;;;5027250;28;20052;-90
2021/12/17 08:04:08;;;;;;;35.47;11.45;;;8.00;99.90;;;;;;5042604;28;20041;-88
2021/12/17 08:06:35;;;;;;;31.27;11.45;;;8.00;99.90;;;;;;5026327;28;20049;-89
2021/12/17 08:09:01;;;;;;;30.52;12.05;;;8.00;99.90;;;;;;5023849;28;20059;-89
2021/12/17 08:11:27;;;;;;;27.98;11.73;;;8.00;99.90;;;;;;5046065;28;20032;-89
2021/12/17 08:13:55;;;;;;;27.52;10.55;;;8.10;99.90;;;;;;5044844;28;20048;-89
2021/12/17 08:23:09;;;;;;;27.73;10.88;;;8.10;99.90;;;;;;5044287;28;20046;-91
2021/12/17 08:32:01;;;;;;;29.38;12.20;;;8.10;99.90;;;;;;5044481;28;20041;-88
2021/12/17 08:34:27;;;;;;;35.85;12.43;;;8.20;99.90;;;;;;5044561;28;20043;-88
2021/12/17 08:36:53;;;;;;;28.00;11.82;;;8.30;99.90;;;;;;5028304;28;20412;-90
2021/12/17 08:39:25;;;;;;;29.48;12.77;;;8.20;99.90;;;;;;5031854;28;20048;-89
2021/12/17 08:41:54;;;;;;;34.17;12.90;;;8.20;99.90;;;;;;5044274;28;20034;-89
2021/12/17 08:44:20;;;;;;;26.15;11.73;;;8.20;99.90;;;;;;5026802;28;20044;-89
2021/12/17 08:46:46;;;;;;;30.33;12.43;;;8.20;99.90;;;;;;5029116;28;20040;-89
2021/12/17 08:49:12;;;;;;;37.63;13.00;;;8.20;99.90;;;;;;5043600;28;20049;-89
2021/12/17 08:51:41;;;;;;;31.65;12.93;;;8.20;99.90;;;;;;5053014;28;20045;-94
2021/12/17 08:54:07;;;;;;;29.38;11.88;;;8.30;99.90;;;;;;5036864;28;20036;-90
2021/12/17 08:56:35;;;;;;;27.42;12.60;;;8.80;99.90;;;;;;5035272;28;20098;-91
2021/12/17 08:59:06;;;;;;;29.55;11.93;;;8.30;99.90;;;;;;5031267;28;20032;-89
2021/12/17 09:01:32;;;;;;;22.63;11.13;;;8.30;99.90;;;;;;5028314;28;20039;-91
2021/12/17 09:03:58;;;;;;;23.65;11.05;;;8.30;99.90;;;;;;5027659;28;20041;-92
2021/12/17 09:06:26;;;;;;;23.40;10.73;;;8.30;99.90;;;;;;5034397;28;20068;-92
2021/12/17 09:08:56;;;;;;;30.63;11.68;;;8.30;99.90;;;;;;5033127;28;20151;-91
2021/12/17 09:11:24;;;;;;;27.73;10.75;;;9.20;99.90;;;;;;5033305;28;20617;-91
2021/12/17 09:13:51;;;;;;;31.00;11.50;;;8.30;99.90;;;;;;5028917;28;20052;-91
2021/12/17 09:16:21;;;;;;;24.20;10.95;;;8.50;99.90;;;;;;5048570;28;20040;-91
2021/12/17 09:18:54;;;;;;;26.75;11.30;;;9.20;99.90;;;;;;5050801;28;20072;-93
2021/12/17 09:21:20;;;;;;;22.25;10.43;;;8.80;99.90;;;;;;5032660;28;20386;-91
2021/12/17 09:23:46;;;;;;;26.33;10.52;;;9.30;99.90;;;;;;5030275;28;20036;-90
2021/12/17 09:26:15;;;;;;;25.98;10.45;;;8.70;99.90;;;;;;5029847;28;20083;-90
2021/12/17 09:28:53;;;;;;;21.00;10.10;;;8.50;99.90;;;;;;5048835;28;20528;-91
2021/12/17 09:32:13;;;;;;;28.88;10.65;;;8.90;99.90;;;;;;5050204;28;20040;-91
2021/12/17 09:34:39;;;;;;;25.85;10.43;;;8.50;99.90;;;;;;5049517;28;20083;-91
2021/12/17 09:37:06;;;;;;;24.38;10.70;;;9.40;99.90;;;;;;5031126;28;20865;-92
2021/12/17 09:39:32;;;;;;;30.25;11.05;;;8.50;99.90;;;;;;5036351;28;20037;-90
2021/12/17 09:41:58;;;;;;;24.45;10.75;;;8.30;99.90;;;;;;5031105;28;20040;-91
2021/12/17 09:48:00;;;;;;;28.15;10.23;;;8.60;99.90;;;;;;5045253;28;20110;-92
2021/12/17 09:50:26;;;;;;;21.30;9.73;;;8.60;99.90;;;;;;5055438;28;20122;-92
2021/12/17 09:52:53;;;;;;;24.45;10.82;;;8.60;99.90;;;;;;5036776;28;20056;-92
2021/12/17 09:55:19;;;;;;;27.23;10.27;;;9.30;99.90;;;;;;5031297;28;20036;-91
2021/12/17 09:57:49;;;;;;;28.73;10.57;;;9.40;99.90;;;;;;5033455;28;20447;-93
2021/12/17 10:00:22;;;;;;;23.15;10.25;;;8.40;99.90;;;;;;5028522;28;20048;-91
2021/12/17 10:02:49;;;;;;;21.85;10.32;;;8.70;99.90;;;;;;5036638;28;20021;-91
2021/12/17 10:05:35;;;;;;;26.55;10.55;;;9.40;99.90;;;;;;5031586;28;20039;-91
2021/12/17 10:08:05;;;;;;;25.10;10.35;;;8.60;99.90;;;;;;5030332;28;20760;-91
2021/12/17 10:10:40;;;;;;;25.05;9.77;;;8.70;99.90;;;;;;5030528;28;20083;-91
2021/12/17 10:13:13;;;;;;;23.38;9.75;;;8.80;99.90;;;;;;5027766;28;20124;-92
2021/12/17 10:15:47;;;;;;;25.42;9.82;;;9.70;99.90;;;;;;5033055;28;20512;-92
2021/12/17 10:18:14;;;;;;;22.92;9.00;;;9.60;99.90;;;;;;5030927;28;20054;-92
2021/12/17 10:20:59;;;;;;;23.42;9.00;;;8.80;99.90;;;;;;5030452;28;20044;-92
2021/12/17 10:23:35;;;;;;;22.50;9.25;;;9.60;99.90;;;;;;5032675;28;20044;-92
2021/12/17 10:26:02;;;;;;;20.90;8.80;;;9.60;99.90;;;;;;5031616;28;20051;-92
2021/12/17 10:28:33;;;;;;;19.92;9.65;;;8.90;99.90;;;;;;5032780;28;20083;-91
2021/12/17 10:30:59;;;;;;;17.52;8.35;;;8.80;99.90;;;;;;5034968;28;20047;-91
2021/12/17 10:33:27;;;;;;;26.02;8.30;;;9.50;99.90;;;;;;5031469;28;20146;-91
2021/12/17 10:35:56;;;;;;;21.33;8.88;;;9.60;99.90;;;;;;5031833;28;20052;-90
2021/12/17 10:38:25;;;;;;;21.25;8.88;;;9.50;99.90;;;;;;5031059;28;20421;-89
2021/12/17 10:41:07;;;;;;;22.17;8.23;;;9.70;99.90;;;;;;5033834;28;20398;-90
2021/12/17 10:43:43;;;;;;;24.75;8.57;;;9.50;99.90;;;;;;5032794;28;20533;-92
2021/12/17 10:46:28;;;;;;;19.90;8.35;;;9.30;99.90;;;;;;5036545;28;20051;-91
2021/12/17 10:54:10;;;;;;;22.58;8.88;;;9.20;99.90;;;;;;5049413;28;20067;-90
2021/12/17 10:56:48;;;;;;;17.92;8.10;;;9.20;99.90;;;;;;5036143;28;20468;-89
2021/12/17 10:59:22;;;;;;;19.52;8.40;;;9.00;99.90;;;;;;5047266;28;20555;-90
2021/12/17 11:02:01;;;;;;;18.38;8.15;;;9.00;99.90;;;;;;5030558;28;20151;-90
2021/12/17 11:04:34;;;;;;;19.45;8.80;;;9.00;99.90;;;;;;5047933;28;20334;-90
2021/12/17 11:07:05;;;;;;;18.38;8.18;;;9.00;99.90;;;;;;5029472;28;20434;-90
2021/12/17 11:09:41;;;;;;;22.75;8.57;;;9.10;99.90;;;;;;5045406;28;20126;-90
2021/12/17 11:12:33;;;;;;;20.73;7.95;;;9.10;99.90;;;;;;5045467;28;20048;-90
2021/12/17 11:15:21;;;;;;;22.60;7.82;;;9.10;99.90;;;;;;5028687;28;20040;-90
2021/12/17 11:18:04;;;;;;;19.83;7.72;;;9.10;99.90;;;;;;5032357;28;20063;-91
2021/12/17 11:20:35;;;;;;;18.42;8.18;;;9.20;99.90;;;;;;5029347;28;20051;-91
2021/12/17 11:23:07;;;;;;;14.25;7.35;;;9.20;99.90;;;;;;5046587;28;20549;-90
2021/12/17 11:25:39;;;;;;;13.25;7.30;;;9.20;99.90;;;;;;5029528;28;20379;-91
2021/12/17 11:28:11;;;;;;;14.45;7.00;;;9.20;99.90;;;;;;5031684;28;20668;-90
2021/12/17 11:30:48;;;;;;;18.42;7.40;;;9.30;99.90;;;;;;5033095;28;20046;-90
2021/12/17 11:33:14;;;;;;;16.33;7.18;;;9.40;99.90;;;;;;5044847;28;20040;-90
2021/12/17 11:35:43;;;;;;;13.02;6.50;;;9.20;99.90;;;;;;5031578;28;20049;-90
2021/12/17 11:38:38;;;;;;;15.35;7.18;;;9.80;99.90;;;;;;5035793;28;20135;-89
2021/12/17 11:41:13;;;;;;;18.30;7.63;;;9.30;99.90;;;;;;5048732;28;20051;-91
2021/12/17 11:43:54;;;;;;;17.08;7.82;;;9.30;99.90;;;;;;5029343;28;20076;-90
2021/12/17 11:46:29;;;;;;;14.35;7.70;;;9.30;99.90;;;;;;5032460;28;20041;-90
2021/12/17 11:48:58;;;;;;;13.82;7.13;;;9.70;99.90;;;;;;5030163;28;20033;-91
2021/12/17 11:51:26;;;;;;;18.27;7.90;;;10.10;99.90;;;;;;5031839;28;20040;-91
2021/12/17 11:53:52;;;;;;;14.25;6.90;;;10.20;99.90;;;;;;5028664;28;20048;-91
2021/12/17 11:56:35;;;;;;;13.05;7.25;;;10.10;99.90;;;;;;5029271;28;20101;-90
2021/12/17 11:59:02;;;;;;;17.10;7.35;;;9.40;99.90;;;;;;5034142;28;20062;-90
2021/12/17 12:01:47;;;;;;;12.80;7.45;;;9.40;99.90;;;;;;5031089;28;20044;-91
2021/12/17 12:04:34;;;;;;;14.02;7.65;;;9.40;99.90;;;;;;5033018;28;20051;-89
2021/12/17 12:07:12;;;;;;;13.18;8.32;;;9.50;99.90;;;;;;5032098;28;20052;-89
2021/12/17 12:09:57;;;;;;;15.50;7.55;;;9.70;99.90;;;;;;5031484;28;20036;-89
2021/12/17 12:12:41;;;;;;;13.35;7.55;;;9.40;99.90;;;;;;5025864;28;20049;-89
2021/12/17 12:15:20;;;;;;;12.48;7.63;;;9.40;99.90;;;;;;5028066;28;20037;-90
2021/12/17 12:17:58;;;;;;;14.70;7.35;;;9.70;99.90;;;;;;5031251;28;20080;-90
2021/12/17 12:20:51;;;;;;;13.23;7.57;;;9.50;99.90;;;;;;5026313;28;20040;-89
2021/12/17 12:23:20;;;;;;;11.70;7.65;;;9.40;99.90;;;;;;5024834;28;20037;-89
2021/12/17 12:26:08;;;;;;;14.48;8.00;;;9.40;99.90;;;;;;5025642;28;20100;-90
2021/12/17 12:28:58;;;;;;;10.75;6.70;;;9.40;99.90;;;;;;5030843;28;20055;-89
2021/12/17 12:31:24;;;;;;;10.93;6.68;;;9.40;99.90;;;;;;5040959;28;20102;-89
2021/12/17 12:34:06;;;;;;;12.23;6.95;;;9.30;99.90;;;;;;5044117;28;20549;-89
2021/12/17 12:36:58;;;;;;;14.07;6.95;;;9.30;99.90;;;;;;5023078;28;20060;-89
2021/12/17 12:39:25;;;;;;;13.07;6.55;;;9.30;99.90;;;;;;5029705;28;20139;-89
2021/12/17 12:42:11;;;;;;;13.25;7.10;;;9.70;99.90;;;;;;5029717;28;20047;-89
2021/12/17 12:44:39;;;;;;;12.45;7.32;;;9.30;99.90;;;;;;5039241;28;20048;-89
2021/12/17 12:47:26;;;;;;;13.77;6.70;;;9.40;99.90;;;;;;5030079;28;21605;-93
2021/12/17 12:50:10;;;;;;;11.50;6.75;;;9.20;99.90;;;;;;5026643;28;20045;-89
2021/12/17 12:52:51;;;;;;;13.40;6.95;;;9.30;99.90;;;;;;5029405;28;20045;-88
2021/12/17 12:55:21;;;;;;;10.07;6.43;;;9.30;99.90;;;;;;5044082;28;20040;-89
2021/12/17 12:57:52;;;;;;;14.63;6.75;;;9.30;99.90;;;;;;5044375;28;20381;-89
2021/12/17 13:00:26;;;;;;;12.55;6.50;;;9.00;99.90;;;;;;5042169;28;20052;-89
2021/12/17 13:03:02;;;;;;;10.05;6.25;;;9.30;99.90;;;;;;5029895;28;20045;-89
2021/12/17 13:05:28;;;;;;;10.77;6.28;;;9.40;99.90;;;;;;5045568;28;20446;-89
2021/12/17 13:07:59;;;;;;;10.18;6.43;;;9.30;99.90;;;;;;5026893;28;20078;-89
2021/12/17 13:10:40;;;;;;;10.23;6.55;;;9.30;99.90;;;;;;5042404;28;20044;-88
2021/12/17 13:23:31;;;;;;;10.60;5.65;;;9.30;99.90;;;;;;5041282;28;20076;-88
2021/12/17 13:26:09;;;;;;;9.02;4.88;;;9.30;99.90;;;;;;5025960;28;20098;-88
2021/12/17 13:28:56;;;;;;;9.48;4.82;;;9.30;99.90;;;;;;5024323;28;20048;-88
2021/12/17 13:31:49;;;;;;;8.88;5.35;;;9.30;99.90;;;;;;5028096;28;20619;-89
2021/12/17 13:34:22;;;;;;;8.10;5.00;;;9.30;99.90;;;;;;5041132;28;20048;-90
2021/12/17 13:36:54;;;;;;;7.95;4.40;;;9.30;99.90;;;;;;5030559;28;20032;-90
2021/12/17 13:39:22;;;;;;;7.75;4.60;;;9.30;99.90;;;;;;5033662;28;20535;-89
2021/12/17 13:41:49;;;;;;;8.45;4.82;;;9.30;99.90;;;;;;5031008;28;20049;-90
2021/12/17 13:44:33;;;;;;;8.93;5.25;;;9.90;99.90;;;;;;5027737;28;21636;-89
2021/12/17 13:47:13;;;;;;;9.13;5.43;;;9.30;99.90;;;;;;5031110;28;20099;-89
2021/12/17 13:49:45;;;;;;;8.73;4.57;;;9.30;99.90;;;;;;5032254;28;20061;-90
2021/12/17 13:52:11;;;;;;;8.77;5.07;;;9.80;99.90;;;;;;5030309;28;20051;-90
2021/12/17 13:54:41;;;;;;;8.98;5.63;;;9.30;99.90;;;;;;5029513;28;20028;-89
2021/12/17 13:57:14;;;;;;;8.68;5.28;;;9.30;99.90;;;;;;5033937;28;20410;-89
2021/12/17 13:59:40;;;;;;;7.88;5.47;;;9.30;99.90;;;;;;5044303;28;20044;-90
2021/12/17 14:02:21;;;;;;;10.70;5.88;;;10.00;99.90;;;;;;5032382;28;20048;-90
2021/12/17 14:05:25;;;;;;;10.40;5.93;;;9.30;99.90;;;;;;5047115;28;20036;-89
2021/12/17 14:07:52;;;;;;;8.48;5.20;;;9.30;99.90;;;;;;4986419;28;20432;-89
2021/12/17 14:10:38;;;;;;;9.20;5.68;;;9.30;99.90;;;;;;5030255;28;20500;-90
2021/12/17 14:13:05;;;;;;;11.43;5.63;;;9.30;99.90;;;;;;5027677;28;20079;-89
2021/12/17 14:15:35;;;;;;;11.85;6.07;;;9.70;99.90;;;;;;5026766;28;20054;-89
2021/12/17 14:18:07;;;;;;;10.40;5.57;;;9.60;99.90;;;;;;5026148;28;20024;-89
2021/12/17 14:20:44;;;;;;;9.63;5.25;;;9.60;99.90;;;;;;5027973;28;20519;-89
2021/12/17 14:23:15;;;;;;;11.25;6.50;;;9.30;99.90;;;;;;5032633;28;20045;-89
2021/12/17 14:25:49;;;;;;;9.07;5.95;;;9.30;99.90;;;;;;5027614;28;20051;-89
2021/12/17 14:28:30;;;;;;;12.10;5.82;;;9.30;99.90;;;;;;5024973;28;21630;-89
2021/12/17 14:31:04;;;;;;;10.45;5.88;;;9.20;99.90;;;;;;5024465;28;20048;-89
2021/12/17 14:33:38;;;;;;;11.23;6.13;;;9.90;99.90;;;;;;5023162;28;20521;-89
2021/12/17 14:36:06;;;;;;;9.48;6.00;;;9.40;99.90;;;;;;5029839;28;20057;-89
2021/12/17 14:38:45;;;;;;;10.82;6.20;;;9.30;99.90;;;;;;5044543;28;20509;-90
2021/12/17 14:41:18;;;;;;;10.35;5.82;;;9.30;99.90;;;;;;5044214;28;20049;-90
2021/12/17 14:43:53;;;;;;;9.23;5.85;;;9.30;99.90;;;;;;5028025;28;20051;-90
2021/12/17 14:46:31;;;;;;;10.55;5.97;;;9.70;99.90;;;;;;5023357;28;20037;-89
2021/12/17 15:05:10;;;;;;;11.50;5.20;;;9.20;99.90;;;;;;5044715;28;20041;-90
2021/12/17 15:07:37;;;;;;;8.85;5.28;;;9.50;99.90;;;;;;5032015;28;20049;-90
2021/12/17 15:10:06;;;;;;;10.15;5.18;;;9.20;99.90;;;;;;5044632;28;20044;-90
2021/12/17 15:14:59;;;;;;;10.43;5.72;;;9.30;99.90;;;;;;5036630;28;20052;-90
2021/12/17 15:17:25;;;;;;;11.13;5.47;;;9.20;99.90;;;;;;5033354;28;20951;-89
2021/12/17 15:19:51;;;;;;;8.63;5.38;;;9.10;99.90;;;;;;5026719;28;20048;-88
2021/12/17 15:22:17;;;;;;;11.50;5.60;;;8.80;99.90;;;;;;5028140;28;20094;-89
2021/12/17 15:24:42;;;;;;;9.43;5.70;;;9.80;99.90;;;;;;5037377;28;20071;-89
2021/12/17 15:27:13;;;;;;;11.82;6.03;;;9.60;99.90;;;;;;5024045;28;20390;-89
2021/12/17 15:29:39;;;;;;;12.57;5.80;;;9.10;99.90;;;;;;5024281;28;20045;-89
2021/12/17 15:32:07;;;;;;;12.65;6.28;;;9.00;99.90;;;;;;5038690;28;20542;-90
2021/12/17 15:34:35;;;;;;;12.10;5.65;;;9.10;99.90;;;;;;5026165;28;20045;-89
2021/12/17 15:37:01;;;;;;;11.02;6.32;;;9.10;99.90;;;;;;5023354;28;20401;-88
2021/12/17 15:39:27;;;;;;;10.05;6.47;;;9.10;99.90;;;;;;5028618;28;20041;-89
2021/12/17 15:41:54;;;;;;;10.20;6.50;;;8.70;99.90;;;;;;5049011;28;20668;-90
2021/12/17 15:44:30;;;;;;;12.63;6.85;;;8.50;99.90;;;;;;5027969;28;20118;-88
2021/12/17 15:47:01;;;;;;;14.57;6.63;;;9.00;99.90;;;;;;5043680;28;20060;-88
2021/12/17 15:49:27;;;;;;;10.32;6.30;;;9.10;99.90;;;;;;5049167;28;20111;-89
2021/12/17 15:52:18;;;;;;;11.85;6.82;;;9.00;99.90;;;;;;5031451;28;20696;-90
2021/12/17 15:54:44;;;;;;;17.85;6.88;;;9.00;99.90;;;;;;5047898;28;20040;-89
2021/12/17 15:57:10;;;;;;;12.90;7.18;;;9.10;99.90;;;;;;5029154;28;20554;-89
2021/12/17 15:59:36;;;;;;;12.40;6.82;;;9.00;99.90;;;;;;5037026;28;20061;-90
2021/12/17 16:02:03;;;;;;;11.27;7.50;;;9.70;99.90;;;;;;5024589;28;20074;-92
2021/12/17 16:04:35;;;;;;;14.35;7.82;;;9.00;99.90;;;;;;5043887;28;20040;-89
2021/12/17 16:07:02;;;;;;;14.65;8.05;;;9.10;99.90;;;;;;5024900;28;20052;-90
2021/12/17 16:23:18;;;;;;;16.73;7.50;;;8.90;99.90;;;;;;5045700;28;20448;-89
2021/12/17 16:26:16;;;;;;;17.52;7.75;;;9.10;99.90;;;;;;5048522;28;20079;-91
2021/12/17 16:29:00;;;;;;;18.20;8.35;;;8.60;99.90;;;;;;5012450;28;20044;-90
2021/12/17 16:31:30;;;;;;;19.30;8.38;;;9.50;99.90;;;;;;5030722;28;20043;-91
2021/12/17 16:34:14;;;;;;;17.48;8.43;;;9.50;99.90;;;;;;5040004;28;20287;-92
2021/12/17 16:36:46;;;;;;;19.40;7.97;;;8.60;99.90;;;;;;5026111;28;20044;-92
2021/12/17 16:39:21;;;;;;;15.43;7.55;;;8.10;99.90;;;;;;5039543;28;20055;-91
2021/12/17 16:41:52;;;;;;;17.50;6.38;;;9.00;99.90;;;;;;5032797;28;20053;-92
2021/12/17 16:44:34;;;;;;;10.75;6.03;;;9.20;99.90;;;;;;5028452;28;20092;-89
2021/12/17 16:47:15;;;;;;;11.75;4.95;;;8.90;99.90;;;;;;5031441;28;20059;-92
2021/12/17 16:49:43;;;;;;;11.60;5.70;;;9.20;99.90;;;;;;5035221;28;20051;-89